METAR Data
IDs: Format: Raw Decoded Include TAF

Data at: 0020 UTC 30 May 2020

PGRO 292350Z 09014KT 7SM SCT015 BKN100 27/23 A2996